Wednesday, April 25, 2018, 5:06 AM EDT
Back to Local

KWST, Westerly State Airport

Location: Westerly, RI, United States Lat: 41.35
Local Time: 5:06 AM EDT ( 9:06 GMT) Lon: -71.8
Time Zone: US/Eastern Elev: 82 ft

Show me the last for .
Show Decoded

2018-04-25 03:53 METAR KWST 250753Z AUTO 11009KT 10SM BKN055 BKN085 OVC110 11/08 A3012 RMK AO2
                 SLP200 T01060083 $ =
2018-04-25 02:53 METAR KWST 250653Z AUTO 10009KT 10SM SCT070 BKN120 11/08 A3015 RMK AO2 SLP208
                 T01060083 $ =
2018-04-25 01:53 METAR KWST 250553Z AUTO 11007KT 10SM FEW070 11/08 A3018 RMK AO2 SLP219 T01060078
                 10111 20100 58028 $ =
2018-04-25 00:53 METAR KWST 250453Z AUTO 10008KT 10SM OVC060 11/07 A3022 RMK AO2 SLP233 T01060072
                 401441006 $ =
2018-04-24 23:53 METAR KWST 250353Z AUTO 09006KT 10SM FEW055 SCT070 11/05 A3024 RMK AO2 SLP240
                 T01110050 $ =
2018-04-24 22:53 METAR KWST 250253Z AUTO 12006KT 10SM BKN033 OVC043 11/06 A3027 RMK AO2 SLP248
                 T01110061 58009 $ =
2018-04-24 21:53 METAR KWST 250153Z AUTO 13005KT 10SM OVC035 10/06 A3029 RMK AO2 SLP255 T01000061
                 $ =
2018-04-24 20:53 METAR KWST 250053Z AUTO 14010KT 10SM BKN049 OVC070 10/06 A3029 RMK AO2 SLP257
                 T01000056 $ =
2018-04-24 19:53 METAR KWST 242353Z AUTO 13007KT 10SM CLR 10/07 A3029 RMK AO2 SLP258 T01000067
                 10144 20100 56011 $ =
2018-04-24 18:53 METAR KWST 242253Z AUTO 14007KT 10SM FEW055 11/06 A3029 RMK AO2 SLP259 T01110056
                 $ =
2018-04-24 17:53 METAR KWST 242153Z AUTO 16007KT 10SM CLR 12/06 A3030 RMK AO2 SLP262 T01220056 $
                 =
2018-04-24 16:53 METAR KWST 242053Z AUTO 18010KT 10SM CLR 13/06 A3033 RMK AO2 SLP269 T01330061
                 56022 $ =
2018-04-24 15:53 METAR KWST 241953Z AUTO 17011KT 10SM CLR 13/06 A3034 RMK AO2 SLP275 T01330061 $
                 =
2018-04-24 14:53 METAR KWST 241853Z AUTO 18013G17KT 10SM CLR 14/07 A3037 RMK AO2 SLP284 T01390067
                 $ =
2018-04-24 13:53 METAR KWST 241753Z AUTO 18012KT 10SM CLR 14/07 A3039 RMK AO2 SLP291 T01440072
                 10144 20061 56015 $ =
2018-04-24 12:53 METAR KWST 241653Z AUTO 17010KT 10SM CLR 14/07 A3040 RMK AO2 SLP294 T01440072 $
                 =
2018-04-24 11:53 METAR KWST 241553Z AUTO 17009KT 10SM CLR 14/05 A3042 RMK AO2 SLP301 T01440050 $
                 =
2018-04-24 10:53 METAR KWST 241453Z AUTO 19007KT 10SM CLR 14/06 A3043 RMK AO2 SLP306 T01390056
                 58006 $ =
2018-04-24 09:53 METAR KWST 241353Z AUTO 19006KT 10SM CLR 13/06 A3045 RMK AO2 SLP310 T01330056 $
                 =
2018-04-24 08:53 METAR KWST 241253Z AUTO 00000KT 10SM CLR 11/06 A3044 RMK AO2 SLP309 T01110061 $
                 =
2018-04-24 07:53 METAR KWST 241153Z AUTO 00000KT 7SM CLR 06/05 A3045 RMK AO2 SLP312 I6000
                 T00610050 10061 21006 53007 $ =
2018-04-24 07:11 METAR KWST 241111Z AUTO 00000KT 4SM BR FEW001 03/03 A3045 RMK AO2 T00280028 $ =
2018-04-24 07:02 METAR KWST 241102Z AUTO 00000KT 2SM BR SCT001 02/02 A3045 RMK AO2 T00220022 $ =
2018-04-24 07:00 METAR KWST 241100Z AUTO 00000KT 1SM BR VV001 02/02 A3045 RMK AO2 T00170017 $ =
2018-04-24 06:53 METAR KWST 241053Z AUTO 00000KT 1/4SM FG VV001 01/01 A3044 RMK AO2 SLP310 I1000
                 T00110011 $ =
2018-04-24 06:21 METAR KWST 241021Z AUTO 36003KT 1/4SM FG VV001 00/00 A3044 RMK AO2 I1000
                 T00000000 $ =
2018-04-24 06:18 METAR KWST 241018Z AUTO 00000KT 1 1/4SM BR FEW001 00/M01 A3044 RMK AO2 I1000
                 T00001006 $ =
2018-04-24 06:09 METAR KWST 241009Z AUTO 00000KT 3SM BR CLR 00/M01 A3043 RMK AO2 I1000 T00001006
                 $ =
2018-04-24 06:00 METAR KWST 241000Z AUTO 00000KT 1SM BR CLR M01/M01 A3043 RMK AO2 T10061006 $ =
2018-04-24 05:53 METAR KWST 240953Z AUTO 35003KT 2SM BR CLR M01/M01 A3043 RMK AO2 SLP304
                 T10061006 $ =
2018-04-24 05:42 METAR KWST 240942Z AUTO 00000KT 5SM BR FEW001 00/M01 A3043 RMK AO2 T00001006 $ =
2018-04-24 05:35 METAR KWST 240935Z AUTO 00000KT 2SM BR SCT001 00/00 A3043 RMK AO2 T00000000 $ =
2018-04-24 05:32 METAR KWST 240932Z AUTO 00000KT 1SM BR VV001 00/00 A3043 RMK AO2 T00000000 $ =
2018-04-24 05:23 METAR KWST 240923Z AUTO 00000KT 1/4SM FG VV001 00/00 A3043 RMK AO2 T00000000 $ =
2018-04-24 05:14 METAR KWST 240914Z AUTO 00000KT 1SM BR VV001 00/00 A3043 RMK AO2 T00000000 $ =

Support USWX by starting your Amazon purchase here.